Aérodrome :
LOGIN :

S'inscrire | Disclaimer

   EN    FR    IT 

 










Légende :    VFR   VFR Marginal   IFR   IFR Intensif   IFR Très Intensif
Visi : 
Plafond : 
>= 8 km
>= 3000ft
5 à 8 km
1000 à 3000 ft
1500m à 5 km
500 à 1000 ft
800 à 1500m
200 à 500 ft
< 800m
< 200 ft
Symboles :   Orages  Brouillard  Fortes neiges  Fortes précipitations  Vent > 20 kt
SIGMETs :   Divers  Orages  Givrage  Turbulence  Onde Orograph.  Cendres Volcan.






- Altitude de l'aérodrome : 1234 ft
- Code IATA : LUX


ELLX - Luxembourg Findel

DERNIER METAR :
  • 221550Z 07006KT CAVOK 03/M04 Q1033 R06/19//95 NOSIG

METARs EXPIRÉS :
  • 221520Z 04010KT CAVOK 04/M04 Q1033 NOSIG
  • 221450Z 04011KT CAVOK 04/M04 Q1033 NOSIG
  • 221420Z 05007KT CAVOK 05/M04 Q1033 NOSIG
  • 221350Z 05009KT CAVOK 05/M04 Q1033 NOSIG
  • 221320Z 06008KT CAVOK 05/M03 Q1033 NOSIG

TAF TAF ELLX
Valide du 22 à 12h jusqu'au 23 à 18h UTC


221100Z 2212/2318 04006KT CAVOK
BECMG 2216/2219 3000 BR BKN008
BECMG 2219/2222 0300 FZFG BKN000
TEMPO 2300/2307 FG
TEMPO 2307/2312 0800 FG
PROB40 2312/2318 5000 BR BKN008
ATIS : +352 4798 27300
Météo : +352 4798 27010 / 27050



MET'MAP, la Météo Aéronautique d'un coup d'oeil ! - Copyright ORBIFLY Décembre 2007 - Disclaimer

ORBIFLY MET'MAP TEAM :

Programmation & Développement : Alexandra Zaïnal
Sur une idée originale de : Baudouin d'Aumeries
Assistance à la programmation : Marc-Olivier Méhu
Soutien technique & logistique : Manuel Goepfert

Contact : metmap@orbifly.com




SOURCES & CREDITS :

   NOAA